createdAt,value
2023-04-10T00:01:36.725Z,95322.41
2023-04-10T00:04:05.471Z,95320.13
2023-04-10T00:06:34.364Z,95248.00
2023-04-10T00:09:02.861Z,95319.03
2023-04-10T00:11:32.530Z,95315.34
2023-04-10T00:14:00.923Z,95301.03
2023-04-10T00:16:29.248Z,95307.13
2023-04-10T00:18:57.558Z,95309.78
2023-04-10T00:21:26.497Z,95304.84
2023-04-10T00:23:54.917Z,95302.69
2023-04-10T00:26:24.038Z,95309.41
2023-04-10T00:28:53.697Z,95300.78
2023-04-10T00:31:22.056Z,95295.34
2023-04-10T00:33:50.481Z,95296.94
2023-04-10T00:36:20.014Z,95303.00
2023-04-10T00:38:49.876Z,95302.88
2023-04-10T00:41:18.236Z,95297.97
2023-04-10T00:43:47.086Z,95289.78
2023-04-10T00:46:17.476Z,95278.06
2023-04-10T00:48:46.029Z,95293.72
2023-04-10T00:51:14.662Z,95291.25
2023-04-10T00:53:42.960Z,95290.16
2023-04-10T00:56:11.488Z,95287.38
2023-04-10T00:58:39.931Z,95279.16
2023-04-10T01:01:08.932Z,95273.38
2023-04-10T01:03:39.790Z,95279.03
2023-04-10T01:06:18.026Z,95273.81
2023-04-10T01:08:54.865Z,95274.00
2023-04-10T01:11:34.308Z,95269.59
2023-04-10T01:14:08.849Z,95277.91
2023-04-10T01:16:45.152Z,95266.38
2023-04-10T01:19:27.384Z,95269.66
2023-04-10T01:21:57.298Z,95268.38
2023-04-10T01:24:44.668Z,95270.47
2023-04-10T01:27:28.576Z,95267.03
2023-04-10T01:29:59.898Z,95271.28
2023-04-10T01:32:32.078Z,95259.66
2023-04-10T01:35:03.762Z,95255.91
2023-04-10T01:37:35.200Z,95262.75
2023-04-10T01:40:06.957Z,95269.66
2023-04-10T01:42:45.111Z,95251.53
2023-04-10T01:45:19.807Z,95277.53
2023-04-10T01:47:48.728Z,95274.66
2023-04-10T01:50:18.190Z,95262.59
2023-04-10T01:52:47.795Z,95251.91
2023-04-10T01:55:16.935Z,95266.22
2023-04-10T01:57:45.972Z,95264.59
2023-04-10T02:00:16.412Z,95269.91
2023-04-10T02:02:46.009Z,95270.41
2023-04-10T02:05:17.186Z,95268.78
2023-04-10T02:07:49.887Z,95266.72
2023-04-10T02:10:23.849Z,95183.41
2023-04-10T02:12:56.800Z,95258.53
2023-04-10T02:15:28.765Z,95253.69
2023-04-10T02:17:59.987Z,95255.81
2023-04-10T02:20:28.617Z,95249.66
2023-04-10T02:22:59.671Z,95253.00
2023-04-10T02:25:28.044Z,95254.63
2023-04-10T02:27:56.341Z,95258.06
2023-04-10T02:30:25.019Z,95250.63
2023-04-10T02:32:55.521Z,95252.06
2023-04-10T02:35:23.828Z,95248.72
2023-04-10T02:37:52.101Z,95241.28
2023-04-10T02:40:20.406Z,95244.25
2023-04-10T02:42:48.725Z,95241.88
2023-04-10T02:45:17.174Z,95232.66
2023-04-10T02:47:45.478Z,95240.81
2023-04-10T02:50:15.254Z,95194.03
2023-04-10T02:52:43.584Z,95245.91
2023-04-10T02:55:12.414Z,95239.47
2023-04-10T02:57:41.078Z,95231.81
2023-04-10T03:00:10.830Z,95248.50
2023-04-10T03:02:39.405Z,95239.53
2023-04-10T03:05:09.239Z,95241.66
2023-04-10T03:07:38.936Z,95243.78
2023-04-10T03:10:08.206Z,95247.72
2023-04-10T03:12:36.488Z,95249.47
2023-04-10T03:15:05.267Z,95247.69
2023-04-10T03:17:33.485Z,95242.16
2023-04-10T03:20:01.744Z,95234.19
2023-04-10T03:22:32.345Z,95233.34
2023-04-10T03:25:02.672Z,95239.75
2023-04-10T03:27:32.369Z,95242.78
2023-04-10T03:30:00.966Z,95244.13
2023-04-10T03:32:31.296Z,95241.97
2023-04-10T03:34:59.922Z,95236.16
2023-04-10T03:37:28.600Z,95238.31
2023-04-10T03:39:57.287Z,95239.66
2023-04-10T03:42:27.216Z,95231.94
2023-04-10T03:44:55.558Z,95237.81
2023-04-10T03:47:23.793Z,95236.16
2023-04-10T03:49:52.042Z,95241.22
2023-04-10T03:52:21.282Z,95243.09
2023-04-10T03:54:49.642Z,95240.25
2023-04-10T03:57:19.385Z,95243.44
2023-04-10T03:59:49.430Z,95244.25
2023-04-10T04:02:17.753Z,95250.88
2023-04-10T04:04:46.225Z,95244.78
2023-04-10T04:07:14.768Z,95250.53
2023-04-10T04:09:43.102Z,95260.09
2023-04-10T04:12:11.360Z,95255.91
2023-04-10T04:14:39.807Z,95258.53
2023-04-10T04:17:09.462Z,95257.06
2023-04-10T04:19:37.746Z,95261.66
2023-04-10T04:22:06.069Z,95256.91
2023-04-10T04:24:34.364Z,95258.56
2023-04-10T04:27:02.865Z,95257.00
2023-04-10T04:29:31.253Z,95250.91
2023-04-10T04:31:59.570Z,95249.88
2023-04-10T04:34:29.369Z,95245.91
2023-04-10T04:36:57.613Z,95254.38
2023-04-10T04:39:26.043Z,95252.25
2023-04-10T04:41:54.281Z,95247.75
2023-04-10T04:44:22.553Z,95247.75
2023-04-10T04:46:50.810Z,95227.59
2023-04-10T04:49:19.091Z,95235.28
2023-04-10T04:51:48.903Z,95255.41
2023-04-10T04:54:17.197Z,95252.22
2023-04-10T04:56:45.474Z,95255.63
2023-04-10T04:59:14.838Z,95254.19
2023-04-10T05:01:43.200Z,95222.34
2023-04-10T05:04:11.792Z,95250.78
2023-04-10T05:06:40.325Z,95250.84
2023-04-10T05:09:10.027Z,95233.88
2023-04-10T05:11:38.289Z,95252.34
2023-04-10T05:14:07.616Z,95244.38
2023-04-10T05:16:35.947Z,95249.75
2023-04-10T05:19:04.262Z,95247.97
2023-04-10T05:21:32.941Z,95248.41
2023-04-10T05:24:01.170Z,95245.91
2023-04-10T05:26:30.822Z,95247.09
2023-04-10T05:28:59.179Z,95254.84
2023-04-10T05:31:27.527Z,95254.50
2023-04-10T05:33:56.120Z,95252.28
2023-04-10T05:36:24.342Z,95207.19
2023-04-10T05:38:53.026Z,95248.78
2023-04-10T05:41:22.022Z,95234.19
2023-04-10T05:43:51.753Z,95256.22
2023-04-10T05:46:23.209Z,95256.63
2023-04-10T05:48:51.937Z,95248.03
2023-04-10T05:51:20.345Z,95242.00
2023-04-10T05:53:50.205Z,95247.78
2023-04-10T05:56:18.465Z,95234.09
2023-04-10T05:58:46.766Z,95251.97
2023-04-10T06:01:16.419Z,95243.66
2023-04-10T06:03:45.208Z,95201.34
2023-04-10T06:06:13.675Z,95247.38
2023-04-10T06:08:42.042Z,95216.00
2023-04-10T06:11:10.743Z,95253.78
2023-04-10T06:13:38.987Z,95244.41
2023-04-10T06:16:08.179Z,95237.16
2023-04-10T06:18:38.673Z,95239.16
2023-04-10T06:21:07.412Z,95221.69
2023-04-10T06:23:36.002Z,95243.84
2023-04-10T06:26:04.718Z,95234.66
2023-04-10T06:28:33.053Z,95123.00
2023-04-10T06:31:03.675Z,95147.16
2023-04-10T06:33:36.329Z,95235.19
2023-04-10T06:36:06.566Z,95242.66
2023-04-10T06:38:37.882Z,95243.75
2023-04-10T06:41:07.109Z,95236.75
2023-04-10T06:43:36.028Z,95156.44
2023-04-10T06:46:05.331Z,95221.16
2023-04-10T06:48:33.813Z,95230.72
2023-04-10T06:51:02.320Z,95174.97
2023-04-10T06:53:32.000Z,95235.47
2023-04-10T06:56:02.977Z,95231.66
2023-04-10T06:58:32.079Z,95235.09
2023-04-10T07:01:04.555Z,95231.50
2023-04-10T07:03:34.009Z,95234.38
2023-04-10T07:06:03.526Z,95230.56
2023-04-10T07:08:33.384Z,95231.03
2023-04-10T07:11:01.748Z,95225.72
2023-04-10T07:13:30.014Z,95219.41
2023-04-10T07:15:58.323Z,95226.28
2023-04-10T07:18:27.255Z,95226.00
2023-04-10T07:20:55.502Z,95217.88
2023-04-10T07:23:23.767Z,95181.91
2023-04-10T07:25:53.604Z,95216.59
2023-04-10T07:28:21.915Z,95179.31
2023-04-10T07:30:50.222Z,95225.47
2023-04-10T07:33:18.708Z,95202.09
2023-04-10T07:35:47.146Z,95151.13
2023-04-10T07:38:15.548Z,95210.41
2023-04-10T07:40:43.768Z,95088.88
2023-04-10T07:43:13.471Z,95215.88
2023-04-10T07:45:42.826Z,95225.53
2023-04-10T07:48:11.337Z,95218.25
2023-04-10T07:50:39.575Z,95222.22
2023-04-10T07:53:08.288Z,95210.06
2023-04-10T07:55:39.712Z,95215.38
2023-04-10T07:58:08.150Z,95163.31
2023-04-10T08:00:38.244Z,95166.94
2023-04-10T08:03:07.374Z,95193.72
2023-04-10T08:05:36.536Z,95162.41
2023-04-10T08:08:04.784Z,95203.94
2023-04-10T08:10:33.313Z,95215.03
2023-04-10T08:13:01.749Z,95211.06
2023-04-10T08:15:29.985Z,95191.84
2023-04-10T08:17:59.773Z,95203.56
2023-04-10T08:20:28.602Z,95211.34
2023-04-10T08:23:03.124Z,95211.69
2023-04-10T08:25:41.244Z,95202.06
2023-04-10T08:28:09.620Z,95207.25
2023-04-10T08:30:37.954Z,95212.78
2023-04-10T08:33:07.789Z,95204.19
2023-04-10T08:35:36.244Z,95212.88
2023-04-10T08:38:13.493Z,95203.19
2023-04-10T08:40:42.300Z,95210.88
2023-04-10T08:43:10.594Z,95201.22
2023-04-10T08:45:39.065Z,95202.91
2023-04-10T08:48:09.877Z,95173.91
2023-04-10T08:50:43.482Z,95198.19
2023-04-10T08:53:14.505Z,95159.25
2023-04-10T08:55:44.037Z,95068.63
2023-04-10T08:58:13.855Z,95192.50
2023-04-10T09:00:42.224Z,95184.31
2023-04-10T09:03:14.523Z,95171.38
2023-04-10T09:05:43.238Z,95116.91
2023-04-10T09:08:12.372Z,95180.16
2023-04-10T09:10:40.701Z,95180.56
2023-04-10T09:13:09.121Z,95175.91
2023-04-10T09:15:58.613Z,95152.09
2023-04-10T09:18:45.922Z,95152.28
2023-04-10T09:21:16.828Z,95157.47
2023-04-10T09:23:46.384Z,95127.81
2023-04-10T09:26:25.565Z,95151.97
2023-04-10T09:29:02.336Z,95157.34
2023-04-10T09:31:33.166Z,95154.13
2023-04-10T09:34:14.304Z,95159.94
2023-04-10T09:36:43.413Z,95152.72
2023-04-10T09:39:13.045Z,95152.06
2023-04-10T09:41:52.732Z,95136.06
2023-04-10T09:44:30.623Z,95141.13
2023-04-10T09:46:59.268Z,95135.44
2023-04-10T09:49:29.026Z,95126.31
2023-04-10T09:51:57.658Z,95132.38
2023-04-10T09:54:38.239Z,95129.28
2023-04-10T09:57:08.442Z,95121.50
2023-04-10T09:59:41.850Z,95132.91
2023-04-10T10:02:11.243Z,95116.22
2023-04-10T10:04:42.743Z,95114.69
2023-04-10T10:07:11.185Z,95117.66
2023-04-10T10:09:39.894Z,95118.50
2023-04-10T10:12:10.354Z,95124.41
2023-04-10T10:14:46.281Z,95125.81
2023-04-10T10:17:19.742Z,95088.50
2023-04-10T10:19:58.514Z,95112.31
2023-04-10T10:22:28.963Z,95113.06
2023-04-10T10:24:58.569Z,95105.66
2023-04-10T10:27:28.680Z,95032.56
2023-04-10T10:30:02.986Z,95107.47
2023-04-10T10:32:36.648Z,95106.00
2023-04-10T10:35:08.183Z,95107.94
2023-04-10T10:37:37.805Z,95107.91
2023-04-10T10:40:13.862Z,95110.13
2023-04-10T10:42:46.822Z,95101.06
2023-04-10T10:45:19.110Z,95101.41
2023-04-10T10:47:50.970Z,95104.97
2023-04-10T10:50:23.430Z,95099.06
2023-04-10T10:52:54.203Z,95089.91
2023-04-10T10:55:38.005Z,95094.53
2023-04-10T10:58:08.192Z,95101.19
2023-04-10T11:01:10.300Z,95089.72
2023-04-10T11:03:39.557Z,95079.03
2023-04-10T11:06:12.937Z,95080.44
2023-04-10T11:08:53.249Z,94981.38
2023-04-10T11:11:23.767Z,95014.28
2023-04-10T11:14:18.229Z,95072.47
2023-04-10T11:16:48.460Z,95077.03
2023-04-10T11:19:22.787Z,95051.59
2023-04-10T11:22:10.728Z,95059.03
2023-04-10T11:24:59.781Z,95074.91
2023-04-10T11:27:46.529Z,95064.22
2023-04-10T11:30:31.466Z,95057.16
2023-04-10T11:33:00.731Z,95062.50
2023-04-10T11:35:31.554Z,95055.38
2023-04-10T11:38:18.330Z,95058.19
2023-04-10T11:41:04.598Z,95060.56
2023-04-10T11:43:33.940Z,94972.41
2023-04-10T11:46:08.144Z,95054.91
2023-04-10T11:48:38.213Z,95056.44
2023-04-10T11:51:11.825Z,95036.28
2023-04-10T11:53:43.933Z,95054.88
2023-04-10T11:56:21.294Z,95048.22
2023-04-10T11:58:55.138Z,95054.22
2023-04-10T12:01:23.980Z,95050.88
2023-04-10T12:03:52.529Z,95048.88
2023-04-10T12:06:21.197Z,95049.59
2023-04-10T12:08:51.347Z,95046.63
2023-04-10T12:11:21.449Z,95049.94
2023-04-10T12:13:50.899Z,95001.94
2023-04-10T12:16:19.681Z,95046.31
2023-04-10T12:18:48.346Z,95046.50
2023-04-10T12:21:16.941Z,95053.84
2023-04-10T12:23:45.238Z,95065.41
2023-04-10T12:26:16.959Z,95052.28
2023-04-10T12:28:57.709Z,95064.69
2023-04-10T12:31:30.483Z,95057.78
2023-04-10T12:33:59.201Z,95058.91
2023-04-10T12:36:30.152Z,95061.44
2023-04-10T12:38:58.893Z,95040.53
2023-04-10T12:41:30.660Z,95054.25
2023-04-10T12:44:09.864Z,95062.31
2023-04-10T12:46:38.233Z,95057.25
2023-04-10T12:49:14.118Z,95052.91
2023-04-10T12:51:49.993Z,95070.13
2023-04-10T12:54:32.130Z,95054.75
2023-04-10T12:57:01.906Z,95048.03
2023-04-10T12:59:30.919Z,95017.81
2023-04-10T13:01:59.382Z,95050.28
2023-04-10T13:04:28.430Z,95058.00
2023-04-10T13:06:57.190Z,95046.34
2023-04-10T13:09:25.485Z,95041.88
2023-04-10T13:11:53.745Z,95045.56
2023-04-10T13:14:24.108Z,95037.75
2023-04-10T13:16:52.363Z,95052.06
2023-04-10T13:19:20.826Z,95044.41
2023-04-10T13:21:50.880Z,95044.47
2023-04-10T13:24:19.112Z,95044.63
2023-04-10T13:26:47.473Z,95037.72
2023-04-10T13:29:15.743Z,95031.91
2023-04-10T13:31:45.522Z,95031.69
2023-04-10T13:34:13.728Z,95035.38
2023-04-10T13:36:42.103Z,95032.88
2023-04-10T13:39:10.412Z,95030.19
2023-04-10T13:41:38.718Z,95025.16
2023-04-10T13:44:07.064Z,95024.47
2023-04-10T13:46:35.424Z,95020.69
2023-04-10T13:49:05.350Z,95016.53
2023-04-10T13:51:33.658Z,95016.03
2023-04-10T13:54:03.032Z,95019.38
2023-04-10T13:56:31.501Z,95013.84
2023-04-10T13:58:59.880Z,95015.69
2023-04-10T14:01:28.320Z,95014.72
2023-04-10T14:03:56.968Z,95011.13
2023-04-10T14:06:27.351Z,94982.41
2023-04-10T14:08:55.917Z,95018.81
2023-04-10T14:11:24.402Z,95021.34
2023-04-10T14:13:52.770Z,95019.81
2023-04-10T14:16:21.226Z,95018.53
2023-04-10T14:18:49.778Z,95022.28
2023-04-10T14:21:20.477Z,95019.00
2023-04-10T14:23:50.500Z,94979.88
2023-04-10T14:26:18.852Z,95030.16
2023-04-10T14:28:47.165Z,95021.59
2023-04-10T14:31:15.611Z,95020.53
2023-04-10T14:33:43.955Z,95028.69
2023-04-10T14:36:12.306Z,95022.59
2023-04-10T14:38:40.684Z,95016.75
2023-04-10T14:41:10.482Z,95023.34
2023-04-10T14:43:39.357Z,94950.94
2023-04-10T14:46:08.370Z,95016.44
2023-04-10T14:48:36.761Z,95009.53
2023-04-10T14:51:05.726Z,95009.50
2023-04-10T14:53:34.004Z,95006.69
2023-04-10T14:56:02.323Z,94975.22
2023-04-10T14:58:31.968Z,95009.94
2023-04-10T15:01:00.298Z,95014.66
2023-04-10T15:03:28.907Z,95004.69
2023-04-10T15:06:01.253Z,94983.41
2023-04-10T15:08:29.655Z,95012.41
2023-04-10T15:10:57.973Z,94961.41
2023-04-10T15:13:26.530Z,95009.38
2023-04-10T15:15:56.619Z,95004.47
2023-04-10T15:18:25.696Z,95002.72
2023-04-10T15:20:55.424Z,94994.66
2023-04-10T15:23:23.788Z,95003.00
2023-04-10T15:25:52.265Z,95005.47
2023-04-10T15:28:20.659Z,95003.25
2023-04-10T15:30:50.199Z,94999.75
2023-04-10T15:33:21.803Z,95002.88
2023-04-10T15:35:50.910Z,95008.19
2023-04-10T15:38:19.168Z,94985.50
2023-04-10T15:40:47.484Z,94993.66
2023-04-10T15:43:15.721Z,94933.31
2023-04-10T15:45:43.959Z,94998.59
2023-04-10T15:48:12.336Z,94995.06
2023-04-10T15:50:43.258Z,94994.66
2023-04-10T15:53:11.663Z,94993.47
2023-04-10T15:55:41.298Z,94910.53
2023-04-10T15:58:09.664Z,94935.97
2023-04-10T16:00:37.973Z,94996.03
2023-04-10T16:03:07.139Z,94988.75
2023-04-10T16:05:35.612Z,94988.94
2023-04-10T16:08:05.353Z,94987.94
2023-04-10T16:10:33.725Z,94986.78
2023-04-10T16:13:04.432Z,94988.94
2023-04-10T16:15:35.821Z,94992.09
2023-04-10T16:18:04.805Z,94989.13
2023-04-10T16:20:33.196Z,94991.03
2023-04-10T16:23:02.158Z,94994.06
2023-04-10T16:25:31.950Z,94995.03
2023-04-10T16:28:00.355Z,94991.28
2023-04-10T16:30:28.716Z,94980.56
2023-04-10T16:32:57.113Z,94992.00
2023-04-10T16:35:25.496Z,94982.00
2023-04-10T16:37:54.965Z,95003.72
2023-04-10T16:40:23.242Z,95001.53
2023-04-10T16:42:52.874Z,95001.50
2023-04-10T16:45:21.270Z,95005.44
2023-04-10T16:47:49.615Z,95008.56
2023-04-10T16:50:18.157Z,95004.22
2023-04-10T16:52:46.452Z,95017.94
2023-04-10T16:55:14.994Z,95011.13
2023-04-10T16:57:44.265Z,95011.91
2023-04-10T17:00:15.229Z,95014.66
2023-04-10T17:02:44.194Z,95012.81
2023-04-10T17:05:13.799Z,95005.34
2023-04-10T17:07:43.671Z,95022.34
2023-04-10T17:10:13.254Z,95028.50
2023-04-10T17:12:42.550Z,95032.06
2023-04-10T17:15:11.611Z,95033.84
2023-04-10T17:17:41.234Z,95031.59
2023-04-10T17:20:10.332Z,95028.94
2023-04-10T17:22:39.387Z,95030.81
2023-04-10T17:25:08.784Z,95025.16
2023-04-10T17:27:40.321Z,95026.28
2023-04-10T17:30:13.194Z,95026.88
2023-04-10T17:32:43.637Z,95015.81
2023-04-10T17:35:11.931Z,95023.88
2023-04-10T17:37:40.164Z,95032.53
2023-04-10T17:40:09.933Z,95034.88
2023-04-10T17:42:38.245Z,95027.81
2023-04-10T17:45:07.622Z,95060.38
2023-04-10T17:47:36.390Z,95039.69
2023-04-10T17:50:06.944Z,95034.81
2023-04-10T17:52:35.629Z,95045.94
2023-04-10T17:55:03.935Z,95047.59
2023-04-10T17:57:32.276Z,95058.00
2023-04-10T18:00:00.524Z,95059.34
2023-04-10T18:02:28.932Z,95064.53
2023-04-10T18:04:57.808Z,95061.94
2023-04-10T18:07:27.472Z,95063.75
2023-04-10T18:09:55.841Z,95067.53
2023-04-10T18:12:24.165Z,95063.63
2023-04-10T18:14:52.457Z,95070.66
2023-04-10T18:17:20.784Z,95068.50
2023-04-10T18:19:49.172Z,95071.09
2023-04-10T18:22:17.533Z,95065.72
2023-04-10T18:24:49.103Z,95060.38
2023-04-10T18:27:17.448Z,95068.59
2023-04-10T18:29:46.716Z,95068.03
2023-04-10T18:32:15.059Z,95076.00
2023-04-10T18:34:43.379Z,95067.72
2023-04-10T18:37:11.649Z,95025.97
2023-04-10T18:39:39.972Z,95007.22
2023-04-10T18:42:10.860Z,95068.38
2023-04-10T18:44:39.155Z,95066.38
2023-04-10T18:47:07.622Z,95067.38
2023-04-10T18:49:36.066Z,95064.00
2023-04-10T18:52:04.493Z,95074.81
2023-04-10T18:54:32.962Z,95067.66
2023-04-10T18:57:01.333Z,95066.16
2023-04-10T18:59:32.151Z,95005.66
2023-04-10T19:02:00.614Z,95072.16
2023-04-10T19:04:29.133Z,95073.41
2023-04-10T19:06:57.425Z,95074.91
2023-04-10T19:09:25.761Z,95078.19
2023-04-10T19:11:54.161Z,95072.59
2023-04-10T19:14:22.463Z,95074.50
2023-04-10T19:16:52.134Z,95076.56
2023-04-10T19:19:20.709Z,95074.75
2023-04-10T19:21:49.050Z,95061.22
2023-04-10T19:24:17.308Z,95065.25
2023-04-10T19:26:45.671Z,95062.50
2023-04-10T19:29:14.016Z,95041.50
2023-04-10T19:31:42.233Z,95069.78
2023-04-10T19:34:12.698Z,95054.19
2023-04-10T19:36:41.943Z,95047.19
2023-04-10T19:39:10.496Z,95055.28
2023-04-10T19:41:43.898Z,95046.13
2023-04-10T19:44:12.286Z,95059.81
2023-04-10T19:46:40.656Z,94962.81
2023-04-10T19:49:09.016Z,95066.25
2023-04-10T19:51:38.680Z,95060.72
2023-04-10T19:54:07.543Z,95017.56
2023-04-10T19:56:37.904Z,95069.53
2023-04-10T19:59:06.168Z,95065.75
2023-04-10T20:01:35.923Z,95077.47
2023-04-10T20:04:04.621Z,95071.41
2023-04-10T20:06:33.203Z,95070.03
2023-04-10T20:09:02.904Z,95067.38
2023-04-10T20:11:31.642Z,95065.94
2023-04-10T20:13:59.999Z,95027.78
2023-04-10T20:16:28.359Z,95068.91
2023-04-10T20:18:56.900Z,95055.81
2023-04-10T20:21:25.542Z,95058.78
2023-04-10T20:23:53.821Z,95056.69
2023-04-10T20:26:25.720Z,95052.34
2023-04-10T20:28:54.447Z,95051.47
2023-04-10T20:31:23.120Z,95051.19
2023-04-10T20:33:51.462Z,95052.00
2023-04-10T20:36:19.870Z,95051.56
2023-04-10T20:38:48.155Z,95051.09
2023-04-10T20:41:16.482Z,95042.59
2023-04-10T20:43:46.277Z,94986.31
2023-04-10T20:46:14.483Z,95045.88
2023-04-10T20:48:42.741Z,95041.78
2023-04-10T20:51:11.176Z,95046.66
2023-04-10T20:53:39.375Z,95035.50
2023-04-10T20:56:08.104Z,95042.09
2023-04-10T20:58:36.440Z,95041.28
2023-04-10T21:01:06.394Z,95032.16
2023-04-10T21:03:34.784Z,95032.38
2023-04-10T21:06:04.511Z,95031.69
2023-04-10T21:08:32.776Z,95034.59
2023-04-10T21:11:01.120Z,95030.75
2023-04-10T21:13:29.381Z,95025.63
2023-04-10T21:15:57.617Z,95021.19
2023-04-10T21:18:27.327Z,95020.47
2023-04-10T21:20:55.642Z,95016.00
2023-04-10T21:23:23.847Z,95022.28
2023-04-10T21:25:53.545Z,95024.94
2023-04-10T21:28:22.003Z,95024.19
2023-04-10T21:30:50.250Z,95029.50
2023-04-10T21:33:18.592Z,94979.09
2023-04-10T21:35:48.957Z,95019.09
2023-04-10T21:38:17.257Z,95007.41
2023-04-10T21:40:52.167Z,94990.63
2023-04-10T21:43:20.625Z,94969.25
2023-04-10T21:45:49.065Z,95016.75
2023-04-10T21:48:17.449Z,95014.34
2023-04-10T21:50:45.714Z,95016.84
2023-04-10T21:53:15.549Z,95002.50
2023-04-10T21:55:43.904Z,95009.19
2023-04-10T21:58:12.252Z,95018.13
2023-04-10T22:00:41.648Z,95015.03
2023-04-10T22:03:10.978Z,95009.69
2023-04-10T22:05:39.349Z,95005.81
2023-04-10T22:08:07.708Z,95007.34
2023-04-10T22:10:38.133Z,95006.44
2023-04-10T22:13:06.742Z,95007.13
2023-04-10T22:15:35.926Z,95004.22
2023-04-10T22:18:04.257Z,94993.81
2023-04-10T22:20:32.561Z,94998.81
2023-04-10T22:23:00.845Z,95001.59
2023-04-10T22:25:29.116Z,95000.63
2023-04-10T22:27:59.153Z,95001.44
2023-04-10T22:30:27.890Z,94993.38
2023-04-10T22:32:57.493Z,94994.88
2023-04-10T22:35:25.961Z,94986.38
2023-04-10T22:37:54.248Z,94990.50
2023-04-10T22:40:22.438Z,94985.41
2023-04-10T22:42:50.689Z,94983.94
2023-04-10T22:45:20.460Z,94984.41
2023-04-10T22:47:48.840Z,94987.31
2023-04-10T22:50:17.197Z,94983.53
2023-04-10T22:52:45.522Z,94978.19
2023-04-10T22:55:14.487Z,94969.25
2023-04-10T22:57:42.860Z,94910.56
2023-04-10T23:00:11.928Z,94966.84
2023-04-10T23:02:41.655Z,94972.84
2023-04-10T23:05:10.795Z,94963.59
2023-04-10T23:07:39.066Z,94960.19
2023-04-10T23:10:08.754Z,94959.66
2023-04-10T23:12:37.866Z,94944.19
2023-04-10T23:15:07.312Z,94951.03
2023-04-10T23:17:35.581Z,94946.50
2023-04-10T23:20:05.707Z,94909.59
2023-04-10T23:22:33.967Z,94936.78
2023-04-10T23:25:02.294Z,94874.19
2023-04-10T23:27:30.560Z,94941.41
2023-04-10T23:29:58.861Z,94920.06
2023-04-10T23:32:27.246Z,94926.88
2023-04-10T23:34:55.507Z,94928.09
2023-04-10T23:37:25.144Z,94918.72
2023-04-10T23:39:53.450Z,94915.25
2023-04-10T23:42:21.663Z,94852.97
2023-04-10T23:44:49.874Z,94900.59
2023-04-10T23:47:18.134Z,94907.13
2023-04-10T23:49:46.425Z,94909.16
2023-04-10T23:52:14.722Z,94812.81
2023-04-10T23:54:44.608Z,94898.84
2023-04-10T23:57:12.877Z,94900.28
2023-04-10T23:59:41.144Z,94870.69
